LiveATC.Net - Listen to live air traffic control over the Internet!


ICAO: LFLP  IATA: NCY   Airport: Annecy-Meythet Airport
City: Annecy
Country: France   Continent: Europe
LFLP METAR Weather: LFLP 271000Z AUTO VRB01KT 3700 BR VV/// 04/04 Q1017 BECMG CAVOK
LFLP Flight Activity (FlightAware)
LFLP Webcam:  (Airport Webcams) 

LFLP Twr/LFLB App
Feed Status: UP   Listeners: 1
Listen in your browser - HTML5 player (in browser, HTML5)
Click here to listen with your own player (launches your MP3 player)
Archive Access: LFLP Twr/LFLB App
FacilityFrequency
Annecy Tower118.200
Chambery Approach121.205
Chambery Info123.700
NOTE1: Reception might be deteriorated due to terrain surrounding feed
NOTE2: LYON APP West 136.075 monitored when activity on the other freq. is low

NOTICE

Unauthorized use prohibited. See LiveATC.net Terms of Service


Airport/ARTCC Code
Frequency Search
(e.g., 124.400, 128.75)
Site-wide search
 


Browse Feeds
Top 50 Feeds
Coverage Map
Bad Weather Areas

LiveATC FAQ
Offer LiveATC feed
Contact LiveATC.net
Press Inquiries

LiveATC on iPhone
LiveATC on Android

Windows Phone
Windows 8/10

LiveATC Mobile
(Mobile browser)

ATC Audio Archives
Interesting Recordings

LiveATC Forums


Home Page
About LiveATC.net
Make a Donation
Terms of Use
Privacy Policy

Canadian Air Freqs

AIRMETs/SIGMETs

FAA Airport Status
Nat'l Airspace Status
Arrival Demand Charts


Server Software By:
Icecast.org
Liquidsoap